Time;durP1;ratioP1;P1;durP2;ratioP2;P2;SDS_P1;SDS_P2;PMS_P1;PMS_P2;Temp;Humidity;BMP_temperature;BMP_pressure;BME280_temperature;BME280_humidity;BME280_pressure;Samples;Min_cycle;Max_cycle;Signal;HPM_P1;HPM_P2
2022/10/08 00:00:05;;;;;;;12.32;3.28;;;;;;;9.04;100.00;100242.00;5069482;28;20044;-51
2022/10/08 00:02:37;;;;;;;14.27;3.63;;;;;;;9.06;100.00;100250.59;5075718;28;20036;-49
2022/10/08 00:05:05;;;;;;;10.73;3.05;;;;;;;9.08;100.00;100253.16;5070178;28;20620;-52
2022/10/08 00:07:31;;;;;;;11.52;3.40;;;;;;;9.07;100.00;100238.47;5068578;28;20040;-50
2022/10/08 00:09:57;;;;;;;8.38;3.05;;;;;;;9.14;100.00;100240.94;5068574;28;20787;-48
2022/10/08 00:12:23;;;;;;;10.95;3.20;;;;;;;9.20;100.00;100252.94;5069382;28;20044;-50
2022/10/08 00:14:48;;;;;;;9.57;3.97;;;;;;;9.25;100.00;100256.28;5070332;28;20037;-50
2022/10/08 00:17:14;;;;;;;8.50;3.42;;;;;;;9.32;100.00;100252.66;5068301;28;20036;-50
2022/10/08 00:19:40;;;;;;;9.13;2.53;;;;;;;9.32;100.00;100252.66;5069031;28;20496;-55
2022/10/08 00:22:06;;;;;;;9.35;3.10;;;;;;;9.16;100.00;100215.78;5068768;28;20032;-50
2022/10/08 00:24:32;;;;;;;12.55;3.38;;;;;;;9.37;100.00;100243.03;5070135;28;20041;-50
2022/10/08 00:26:59;;;;;;;11.35;2.83;;;;;;;9.44;100.00;100251.56;5068529;28;20036;-52
2022/10/08 00:29:25;;;;;;;8.93;2.67;;;;;;;9.45;100.00;100248.94;5051170;28;20071;-51
2022/10/08 00:31:51;;;;;;;11.20;3.03;;;;;;;9.47;100.00;100252.38;5048587;28;20512;-47
2022/10/08 00:34:20;;;;;;;7.63;3.05;;;;;;;9.52;100.00;100253.13;5051892;28;20049;-51
2022/10/08 00:36:53;;;;;;;10.07;2.97;;;;;;;9.60;100.00;100251.22;5069374;28;20036;-49
2022/10/08 00:39:22;;;;;;;7.15;2.20;;;;;;;9.46;100.00;100218.66;5068525;28;20516;-48
2022/10/08 00:41:51;;;;;;;8.35;2.78;;;;;;;9.69;100.00;100251.00;5067063;28;20059;-53
2022/10/08 00:44:54;;;;;;;17.23;3.45;;;;;;;9.68;100.00;100253.66;5068188;28;20036;-52
2022/10/08 00:47:33;;;;;;;7.05;2.63;;;;;;;9.70;100.00;100251.88;5066792;28;20040;-50
2022/10/08 00:50:11;;;;;;;11.68;3.00;;;;;;;9.70;99.49;100257.06;5064929;28;20127;-48
2022/10/08 00:52:44;;;;;;;10.10;2.80;;;;;;;9.62;99.76;100239.06;5048031;28;20099;-48
2022/10/08 00:55:15;;;;;;;8.88;2.50;;;;;;;9.56;99.81;100225.34;5030012;28;20041;-53
2022/10/08 00:57:42;;;;;;;8.20;2.70;;;;;;;9.77;99.20;100264.69;5046564;28;20090;-53
2022/10/08 01:00:15;;;;;;;8.65;2.60;;;;;;;9.79;98.74;100252.50;5068520;28;20060;-51
2022/10/08 01:02:41;;;;;;;11.93;2.58;;;;;;;9.75;98.73;100250.03;5068949;28;20036;-51
2022/10/08 01:05:08;;;;;;;11.75;2.55;;;;;;;9.82;98.87;100255.94;5067508;28;20051;-50
2022/10/08 01:08:04;;;;;;;8.60;2.58;;;;;;;9.86;98.53;100254.97;5068844;28;20044;-54
2022/10/08 01:10:42;;;;;;;13.60;2.92;;;;;;;9.88;98.34;100250.63;5066677;28;20467;-53
2022/10/08 01:13:20;;;;;;;8.07;2.42;;;;;;;9.89;97.70;100257.53;5066323;28;20531;-51
2022/10/08 01:16:01;;;;;;;14.57;3.22;;;;;;;9.88;97.43;100253.22;5055235;28;20048;-48
2022/10/08 01:18:42;;;;;;;13.65;2.75;;;;;;;9.89;97.63;100247.13;5067487;28;20891;-52
2022/10/08 01:21:28;;;;;;;8.23;2.67;;;;;;;9.87;97.21;100244.56;5051111;28;20135;-54
2022/10/08 01:24:05;;;;;;;7.32;2.63;;;;;;;9.87;97.39;100249.75;5066762;28;20055;-48
2022/10/08 01:26:51;;;;;;;6.97;2.50;;;;;;;9.84;97.18;100244.63;5066624;28;20040;-47
2022/10/08 01:29:40;;;;;;;7.65;2.22;;;;;;;9.76;97.26;100221.44;5068029;28;20123;-48
2022/10/08 01:32:07;;;;;;;;;;;;;;;9.88;96.93;100248.88;5056471;28;20166;-51
2022/10/08 01:34:59;;;;;;;7.85;2.33;;;;;;;9.61;97.26;100215.72;5049209;28;20315;-50
2022/10/08 01:37:28;;;;;;;14.27;3.08;;;;;;;9.84;97.29;100251.59;5062163;28;20059;-49
2022/10/08 01:39:58;;;;;;;7.90;2.88;;;;;;;9.84;97.54;100254.19;5066992;28;20044;-54
2022/10/08 01:42:26;;;;;;;7.22;2.55;;;;;;;9.85;97.21;100261.06;5067243;28;20446;-49
2022/10/08 01:45:03;;;;;;;8.82;3.45;;;;;;;9.85;97.05;100263.66;5067289;28;20393;-49
2022/10/08 01:47:30;;;;;;;6.95;2.78;;;;;;;9.86;97.03;100253.25;5067352;28;20119;-52
2022/10/08 01:50:06;;;;;;;14.80;3.03;;;;;;;9.86;97.02;100252.38;5065762;28;20036;-48
2022/10/08 01:52:37;;;;;;;17.17;3.30;;;;;;;9.91;96.62;100247.94;5067045;28;20150;-51
2022/10/08 01:55:09;;;;;;;9.43;2.38;;;;;;;9.90;96.83;100259.22;5071423;28;20072;-51
2022/10/08 01:57:35;;;;;;;8.80;2.63;;;;;;;9.69;96.67;100225.06;5051719;28;20098;-49
2022/10/08 02:00:12;;;;;;;9.13;2.58;;;;;;;9.84;96.75;100243.78;5054093;28;20068;-49
2022/10/08 02:02:39;;;;;;;11.23;2.47;;;;;;;9.86;96.86;100254.97;5053852;28;20128;-51
2022/10/08 02:05:06;;;;;;;8.40;3.00;;;;;;;9.86;96.82;100254.97;5071425;28;20526;-49
2022/10/08 02:07:38;;;;;;;7.30;2.83;;;;;;;9.49;96.51;100187.44;5054664;28;20040;-49
2022/10/08 02:10:14;;;;;;;8.50;2.28;;;;;;;9.84;97.03;100243.78;5072062;28;20507;-49
2022/10/08 02:12:41;;;;;;;10.80;2.55;;;;;;;9.84;96.22;100256.78;5068221;28;20527;-51
2022/10/08 02:15:11;;;;;;;12.02;3.28;;;;;;;9.85;97.16;100258.47;5053081;28;20052;-49
2022/10/08 02:17:40;;;;;;;11.85;2.72;;;;;;;9.69;97.20;100245.81;5085952;28;20570;-51
2022/10/08 02:20:31;;;;;;;13.00;2.97;;;;;;;9.83;96.98;100271.50;5071720;28;20040;-51
2022/10/08 02:23:09;;;;;;;8.88;2.83;;;;;;;9.79;97.10;100268.09;5051420;28;20040;-50
2022/10/08 02:26:12;;;;;;;9.02;3.00;;;;;;;9.79;97.10;100265.50;5071641;28;20098;-51
2022/10/08 02:29:04;;;;;;;10.70;2.70;;;;;;;9.80;96.92;100274.16;5068512;28;20047;-52
2022/10/08 02:31:34;;;;;;;7.95;2.42;;;;;;;9.86;97.29;100274.03;5069246;28;20041;-52
2022/10/08 02:34:23;;;;;;;11.73;2.58;;;;;;;9.89;96.83;100275.72;5072193;28;20107;-52
2022/10/08 02:37:15;;;;;;;;;;;;;;;9.89;96.36;100273.13;5070980;28;20036;-50
2022/10/08 02:39:58;;;;;;;9.18;2.50;;;;;;;9.85;96.70;100272.31;5071767;28;19981;-51
2022/10/08 02:42:26;;;;;;;9.50;2.55;;;;;;;9.88;96.48;100276.59;5057030;28;20105;-51
2022/10/08 02:44:54;;;;;;;8.90;2.35;;;;;;;9.88;96.24;100268.81;5070389;28;20451;-51
2022/10/08 02:47:22;;;;;;;13.40;2.33;;;;;;;9.87;96.67;100270.53;5069384;28;20033;-53
2022/10/08 02:50:01;;;;;;;7.18;2.50;;;;;;;9.89;96.30;100260.94;5070684;28;20508;-47
2022/10/08 02:52:35;;;;;;;8.18;2.45;;;;;;;9.96;96.01;100261.69;5069374;28;20044;-53
2022/10/08 02:55:10;;;;;;;9.10;3.00;;;;;;;9.99;95.84;100262.47;5070749;28;20040;-49
2022/10/08 02:57:45;;;;;;;10.90;3.40;;;;;;;9.88;96.13;100235.91;5070339;28;20051;-49
2022/10/08 03:00:11;;;;;;;8.52;2.80;;;;;;;10.05;95.50;100275.31;5067663;28;20033;-49
2022/10/08 03:02:42;;;;;;;8.95;4.03;;;;;;;10.05;95.64;100262.31;5052193;28;20064;-51
2022/10/08 03:05:15;;;;;;;16.75;4.22;;;;;;;10.03;95.47;100264.13;5071199;28;20043;-49
2022/10/08 03:07:41;;;;;;;7.97;2.78;;;;;;;10.03;94.70;100268.47;5069776;28;20037;-48
2022/10/08 03:10:08;;;;;;;5.35;2.53;;;;;;;10.01;94.83;100262.44;5070216;28;20114;-52
2022/10/08 03:12:34;;;;;;;9.95;2.88;;;;;;;10.02;95.00;100262.41;5069850;28;20048;-51
2022/10/08 03:15:00;;;;;;;10.80;2.45;;;;;;;10.01;95.23;100254.63;5052973;28;20048;-50
2022/10/08 03:17:36;;;;;;;6.93;2.50;;;;;;;9.77;95.20;100211.91;5052937;28;20037;-49
2022/10/08 03:20:04;;;;;;;7.45;2.78;;;;;;;9.78;94.95;100226.59;5053464;28;20511;-51
2022/10/08 03:22:31;;;;;;;6.88;2.28;;;;;;;10.00;94.81;100256.38;5069772;28;20534;-53
2022/10/08 03:24:56;;;;;;;8.23;2.33;;;;;;;9.74;94.61;100204.16;5069403;28;20052;-53
2022/10/08 03:27:22;;;;;;;13.25;2.40;;;;;;;10.03;94.55;100268.47;5068485;28;20134;-52
2022/10/08 03:29:48;;;;;;;5.15;2.28;;;;;;;10.04;94.61;100262.38;5069338;28;20534;-51
2022/10/08 03:32:15;;;;;;;6.25;2.63;;;;;;;10.02;94.73;100262.41;5068864;28;20040;-48
2022/10/08 03:34:40;;;;;;;8.32;2.95;;;;;;;10.02;94.29;100265.00;5070984;28;20540;-51
2022/10/08 03:37:07;;;;;;;9.88;2.65;;;;;;;10.06;94.35;100265.78;5069418;28;20161;-52
2022/10/08 03:39:33;;;;;;;7.70;2.40;;;;;;;9.90;94.26;100233.25;5086637;28;20098;-52
2022/10/08 03:41:59;;;;;;;9.48;2.50;;;;;;;10.14;93.79;100263.88;5070946;28;20044;-49
2022/10/08 03:44:24;;;;;;;9.40;2.33;;;;;;;10.09;93.59;100260.53;5070199;28;20122;-50
2022/10/08 03:46:50;;;;;;;10.90;2.60;;;;;;;10.08;93.88;100256.22;5069409;28;20086;-50
2022/10/08 03:49:16;;;;;;;8.77;2.55;;;;;;;10.10;93.53;100267.44;5069735;28;20037;-52
2022/10/08 03:51:42;;;;;;;7.38;2.08;;;;;;;10.02;93.63;100252.00;5069922;28;20423;-51
2022/10/08 03:54:11;;;;;;;6.43;2.20;;;;;;;10.13;93.78;100262.16;5052766;28;20097;-52
2022/10/08 03:56:36;;;;;;;7.72;2.20;;;;;;;10.15;93.43;100270.78;5070327;28;20135;-54
2022/10/08 03:59:03;;;;;;;8.20;2.50;;;;;;;10.13;93.29;100262.16;5068230;28;20133;-51
2022/10/08 04:01:29;;;;;;;5.25;2.33;;;;;;;10.14;93.04;100264.72;5069881;28;20055;-50
2022/10/08 04:03:58;;;;;;;6.75;2.10;;;;;;;10.17;92.84;100262.06;5069492;28;20051;-49
2022/10/08 04:06:24;;;;;;;7.50;2.22;;;;;;;10.03;93.16;100234.69;5070462;28;20044;-51
2022/10/08 04:08:50;;;;;;;12.75;2.60;;;;;;;10.01;92.71;100232.13;5067680;28;20048;-50
2022/10/08 04:11:17;;;;;;;9.23;2.80;;;;;;;10.24;92.88;100260.19;5069303;28;20043;-52
2022/10/08 04:13:43;;;;;;;6.78;1.88;;;;;;;10.28;92.56;100263.56;5070287;28;20040;-53
2022/10/08 04:16:12;;;;;;;6.20;2.22;;;;;;;10.35;92.03;100265.13;5068183;28;20032;-52
2022/10/08 04:18:38;;;;;;;6.78;2.17;;;;;;;10.30;92.24;100262.66;5068650;28;20044;-49
2022/10/08 04:21:06;;;;;;;7.88;2.50;;;;;;;10.31;92.17;100263.50;5069955;28;20132;-53
2022/10/08 04:23:33;;;;;;;5.72;2.15;;;;;;;10.32;92.03;100265.19;5052296;28;20048;-52
2022/10/08 04:25:59;;;;;;;7.85;2.03;;;;;;;10.35;91.43;100267.75;5069678;28;20064;-52
2022/10/08 04:28:25;;;;;;;7.18;2.17;;;;;;;10.37;91.64;100264.19;5068828;28;20126;-51
2022/10/08 04:31:02;;;;;;;11.98;2.20;;;;;;;10.42;91.72;100274.47;5052296;28;20415;-51
2022/10/08 04:33:30;;;;;;;11.40;2.15;;;;;;;10.42;91.65;100270.13;5069248;28;20068;-50
2022/10/08 04:35:56;;;;;;;6.13;2.30;;;;;;;10.41;91.66;100271.06;5067708;28;20614;-53
2022/10/08 04:38:22;;;;;;;12.82;2.25;;;;;;;10.46;90.87;100274.41;5068726;28;20135;-48
2022/10/08 04:40:48;;;;;;;10.05;2.53;;;;;;;10.48;90.90;100276.94;5070085;28;20573;-53
2022/10/08 04:43:14;;;;;;;8.15;1.80;;;;;;;10.50;90.76;100276.03;5068739;28;20040;-50
2022/10/08 04:45:44;;;;;;;8.13;2.30;;;;;;;10.48;90.31;100283.00;5069832;28;20044;-50
2022/10/08 04:48:11;;;;;;;7.82;2.22;;;;;;;10.53;90.37;100275.94;5066441;28;20041;-50
2022/10/08 04:50:37;;;;;;;7.40;2.63;;;;;;;10.59;90.12;100280.97;5068039;28;20043;-54
2022/10/08 04:53:04;;;;;;;8.30;2.63;;;;;;;10.61;89.80;100283.56;5069415;28;20040;-50
2022/10/08 04:55:32;;;;;;;7.90;2.53;;;;;;;10.67;90.04;100290.34;5051401;28;20059;-52
2022/10/08 04:57:59;;;;;;;10.68;2.60;;;;;;;10.67;89.30;100274.75;5069209;28;20044;-53
2022/10/08 05:00:25;;;;;;;7.10;2.83;;;;;;;10.71;89.79;100285.03;5079528;28;20048;-48
2022/10/08 05:02:51;;;;;;;8.07;2.63;;;;;;;10.71;89.12;100284.19;5051557;28;20063;-50
2022/10/08 05:05:17;;;;;;;9.48;2.38;;;;;;;10.73;88.73;100266.78;5068620;28;20128;-52
2022/10/08 05:07:43;;;;;;;9.32;2.42;;;;;;;10.67;88.07;100254.81;5074971;28;20476;-52
2022/10/08 05:10:09;;;;;;;9.20;2.65;;;;;;;10.61;88.12;100250.59;5067773;28;20131;-55
2022/10/08 05:12:36;;;;;;;11.13;2.45;;;;;;;10.83;88.43;100289.06;5069645;28;20044;-52
2022/10/08 05:15:02;;;;;;;6.43;2.50;;;;;;;10.83;87.89;100291.66;5065651;28;20193;-52
2022/10/08 05:17:29;;;;;;;8.20;2.80;;;;;;;10.76;88.19;100288.38;5063029;28;20496;-50
2022/10/08 05:19:55;;;;;;;8.55;2.45;;;;;;;10.52;87.50;100257.78;5068605;28;20090;-48
2022/10/08 05:22:21;;;;;;;9.40;2.45;;;;;;;10.70;87.76;100295.47;5068782;28;20086;-50
2022/10/08 05:24:46;;;;;;;8.25;2.47;;;;;;;10.70;88.00;100298.06;5068404;28;20050;-48
2022/10/08 05:27:12;;;;;;;10.82;2.40;;;;;;;10.71;88.40;100299.78;5067221;28;20037;-50
2022/10/08 05:29:38;;;;;;;12.80;2.47;;;;;;;10.73;87.47;100287.59;5071443;28;20041;-54
2022/10/08 05:32:04;;;;;;;10.82;2.50;;;;;;;10.72;87.75;100301.50;5071520;28;20040;-50
2022/10/08 05:34:29;;;;;;;12.20;2.55;;;;;;;10.71;87.80;100299.78;5069450;28;20063;-50
2022/10/08 05:36:55;;;;;;;9.88;2.83;;;;;;;10.72;87.88;100298.88;5071948;28;20040;-49
2022/10/08 05:39:21;;;;;;;16.73;2.75;;;;;;;10.77;87.26;100302.22;5055280;28;20064;-50
2022/10/08 05:41:47;;;;;;;10.30;2.70;;;;;;;10.80;87.91;100305.59;5070349;28;20123;-49
2022/10/08 05:44:13;;;;;;;12.75;3.47;;;;;;;10.73;87.36;100279.81;5072312;28;20048;-50
2022/10/08 05:46:39;;;;;;;10.85;2.88;;;;;;;10.61;87.03;100268.81;5069154;28;20033;-53
2022/10/08 05:49:06;;;;;;;10.90;3.35;;;;;;;10.82;87.04;100305.56;5072990;28;20040;-54
2022/10/08 05:51:32;;;;;;;12.85;3.72;;;;;;;10.77;86.93;100294.44;5071677;28;20040;-49
2022/10/08 05:53:59;;;;;;;15.63;3.92;;;;;;;10.64;86.81;100273.06;5055519;28;20037;-53
2022/10/08 05:56:26;;;;;;;8.75;2.80;;;;;;;10.81;86.50;100298.66;5073709;28;20036;-51
2022/10/08 05:58:53;;;;;;;11.05;3.28;;;;;;;10.74;86.20;100274.53;5072127;28;20103;-52
2022/10/08 06:01:22;;;;;;;8.23;2.67;;;;;;;10.89;85.92;100299.28;5071769;28;20040;-50
2022/10/08 06:03:53;;;;;;;8.45;2.47;;;;;;;10.89;85.30;100301.91;5068566;28;20047;-51
2022/10/08 06:06:20;;;;;;;6.50;2.20;;;;;;;10.90;85.77;100293.19;5072705;28;20462;-51
2022/10/08 06:08:46;;;;;;;6.82;2.70;;;;;;;10.95;85.53;100302.59;5072135;28;20028;-53
2022/10/08 06:11:13;;;;;;;6.70;2.35;;;;;;;10.97;84.52;100295.63;5068681;28;20044;-50
2022/10/08 06:13:39;;;;;;;8.82;2.20;;;;;;;10.94;84.81;100280.06;5072488;28;20032;-49
2022/10/08 06:16:07;;;;;;;5.75;1.85;;;;;;;11.14;83.86;100302.13;5068991;28;20047;-50
2022/10/08 06:18:36;;;;;;;7.80;2.22;;;;;;;11.27;83.31;100303.50;5070284;28;20041;-52
2022/10/08 06:21:10;;;;;;;7.30;2.00;;;;;;;11.32;82.48;100299.00;5067570;28;20036;-55
2022/10/08 06:23:37;;;;;;;5.95;1.92;;;;;;;11.25;81.70;100272.28;5069566;28;20180;-48
2022/10/08 06:26:04;;;;;;;8.95;2.35;;;;;;;11.66;81.36;100318.03;5072241;28;20074;-51
2022/10/08 06:28:30;;;;;;;8.48;2.05;;;;;;;11.62;79.91;100259.06;5072513;28;20043;-49
2022/10/08 06:30:57;;;;;;;9.45;2.30;;;;;;;12.06;79.02;100303.84;5071155;28;20041;-49
2022/10/08 06:33:23;;;;;;;3.90;1.80;;;;;;;12.12;77.54;100308.88;5076120;28;20088;-47
2022/10/08 06:35:49;;;;;;;9.73;2.53;;;;;;;12.32;76.71;100309.09;5072655;28;20040;-50
2022/10/08 06:38:15;;;;;;;15.48;2.30;;;;;;;12.74;75.21;100306.84;5053106;28;20139;-52
2022/10/08 06:40:40;;;;;;;9.50;1.92;;;;;;;13.22;73.08;100306.13;5069945;28;20036;-49
2022/10/08 06:43:14;;;;;;;10.20;2.40;;;;;;;13.52;71.23;100282.38;5078345;28;20055;-50
2022/10/08 06:45:41;;;;;;;8.35;2.42;;;;;;;13.83;70.38;100273.38;5070730;28;20127;-49
2022/10/08 06:48:08;;;;;;;10.38;2.63;;;;;;;15.12;66.52;100271.56;5073188;28;20561;-52
2022/10/08 06:50:35;;;;;;;11.73;2.20;;;;;;;15.49;64.94;100307.47;5068493;28;20040;-51
2022/10/08 06:53:04;;;;;;;8.32;2.10;;;;;;;15.79;63.05;100299.19;5072647;28;20032;-53
2022/10/08 06:55:32;;;;;;;9.20;1.95;;;;;;;16.06;61.95;100304.00;5053839;28;20131;-49
2022/10/08 06:57:58;;;;;;;13.18;2.97;;;;;;;15.71;61.83;100302.13;5070643;28;20154;-50
2022/10/08 07:00:24;;;;;;;11.15;2.60;;;;;;;16.00;61.49;100300.81;5070683;28;20040;-51
2022/10/08 07:02:52;;;;;;;9.15;2.40;;;;;;;16.37;60.11;100292.03;5069706;28;20279;-48
2022/10/08 07:05:18;;;;;;;12.65;2.78;;;;;;;16.86;58.64;100298.38;5070877;28;20044;-51
2022/10/08 07:07:44;;;;;;;8.05;2.05;;;;;;;17.14;57.20;100298.69;5070912;28;20140;-49
2022/10/08 07:10:10;;;;;;;5.05;1.85;;;;;;;17.51;55.38;100296.75;5071600;28;20503;-49
2022/10/08 07:12:36;;;;;;;11.35;2.03;;;;;;;17.20;55.84;100297.50;5074140;28;20127;-47
2022/10/08 07:15:03;;;;;;;4.13;2.03;;;;;;;16.70;56.01;100289.53;5042258;28;20515;-51
2022/10/08 07:17:29;;;;;;;8.25;2.35;;;;;;;16.85;56.06;100292.25;5066583;28;20036;-52
2022/10/08 07:19:56;;;;;;;7.13;1.95;;;;;;;16.98;55.87;100287.25;5071285;28;20427;-50
2022/10/08 07:22:22;;;;;;;5.53;2.17;;;;;;;16.83;55.23;100270.50;5070859;28;20063;-54
2022/10/08 07:24:50;;;;;;;6.40;1.95;;;;;;;16.90;55.31;100286.81;5070624;28;20091;-53
2022/10/08 07:27:17;;;;;;;8.27;1.98;;;;;;;17.33;53.80;100291.53;5069329;28;20039;-51
2022/10/08 07:29:43;;;;;;;7.95;2.10;;;;;;;17.34;53.67;100279.22;5067180;28;20055;-51
2022/10/08 07:32:09;;;;;;;4.70;1.50;;;;;;;18.28;52.62;100284.59;5071278;28;20508;-52
2022/10/08 07:34:35;;;;;;;9.07;2.45;;;;;;;18.68;50.91;100279.75;5070441;28;20106;-52
2022/10/08 07:37:01;;;;;;;8.43;2.20;;;;;;;19.39;49.63;100278.91;5068712;28;20119;-54
2022/10/08 07:39:27;;;;;;;6.53;1.98;;;;;;;19.62;48.13;100277.56;5067802;28;20047;-54
2022/10/08 07:41:53;;;;;;;9.07;2.45;;;;;;;19.53;47.90;100275.47;5068779;28;20526;-52
2022/10/08 07:44:19;;;;;;;7.75;1.85;;;;;;;19.57;47.72;100273.50;5051691;28;20074;-50
2022/10/08 07:46:47;;;;;;;12.93;2.05;;;;;;;19.25;48.00;100276.28;5065957;28;20049;-50
2022/10/08 07:49:15;;;;;;;5.50;2.03;;;;;;;19.98;46.94;100273.53;5036228;28;20416;-51
2022/10/08 07:51:41;;;;;;;11.15;2.10;;;;;;;20.70;45.12;100252.91;5069660;28;20040;-52
2022/10/08 07:54:07;;;;;;;6.90;1.77;;;;;;;21.63;43.80;100274.75;5068510;28;20059;-53
2022/10/08 07:56:34;;;;;;;3.47;1.60;;;;;;;22.69;42.07;100251.06;5052356;28;20185;-56
2022/10/08 07:59:01;;;;;;;6.93;2.47;;;;;;;22.74;40.83;100262.19;5068584;28;20044;-58
2022/10/08 08:01:28;;;;;;;4.95;1.90;;;;;;;23.23;39.87;100260.16;5064534;28;20040;-55
2022/10/08 08:04:01;;;;;;;6.82;1.73;;;;;;;23.82;38.51;100270.53;5068322;28;20036;-54
2022/10/08 08:06:28;;;;;;;7.40;1.85;;;;;;;23.52;38.28;100254.38;5067126;28;20036;-54
2022/10/08 08:08:54;;;;;;;5.13;1.50;;;;;;;23.32;38.49;100260.38;5066637;28;20043;-56
2022/10/08 08:11:23;;;;;;;9.05;2.28;;;;;;;22.45;39.67;100250.25;5067470;28;20044;-53
2022/10/08 08:13:51;;;;;;;7.22;1.92;;;;;;;22.71;39.66;100249.19;5068307;28;20036;-51
2022/10/08 08:16:20;;;;;;;7.43;1.90;;;;;;;22.53;39.50;100231.97;5068113;28;20032;-54
2022/10/08 08:18:48;;;;;;;10.00;2.08;;;;;;;21.08;41.97;100244.19;5065020;28;20041;-53
2022/10/08 08:21:16;;;;;;;6.72;1.90;;;;;;;20.54;42.75;100241.66;5069677;28;20132;-51
2022/10/08 08:23:46;;;;;;;6.97;1.95;;;;;;;20.14;43.40;100242.56;5068061;28;20045;-58
2022/10/08 08:26:23;;;;;;;5.43;1.83;;;;;;;19.61;44.37;100235.44;5074328;28;20415;-51
2022/10/08 08:28:51;;;;;;;6.22;1.85;;;;;;;19.94;43.89;100250.94;5070324;28;20503;-57
2022/10/08 08:31:20;;;;;;;5.27;1.80;;;;;;;19.25;44.76;100238.53;5068600;28;20055;-58
2022/10/08 08:33:47;;;;;;;;;;;;;;;19.51;44.54;100239.59;5070212;28;20052;-55
2022/10/08 08:36:13;;;;;;;5.75;1.90;;;;;;;18.87;45.41;100259.28;5069475;28;19974;-55
2022/10/08 08:38:41;;;;;;;10.70;1.80;;;;;;;18.32;46.35;100254.53;5069281;28;20075;-56
2022/10/08 08:41:42;;;;;;;5.15;1.27;;;;;;;17.95;46.99;100244.41;5069062;28;20126;-54
2022/10/08 08:44:23;;;;;;;7.70;1.95;;;;;;;17.24;48.68;100235.97;5017467;28;20165;-51
2022/10/08 08:47:00;;;;;;;4.78;1.40;;;;;;;17.00;49.12;100234.63;5066274;28;20507;-53
2022/10/08 08:49:37;;;;;;;3.63;1.60;;;;;;;16.84;49.89;100235.44;5068489;28;20040;-52
2022/10/08 08:52:04;;;;;;;7.53;1.77;;;;;;;16.58;50.15;100198.25;5068665;28;20033;-52
2022/10/08 08:54:31;;;;;;;7.97;1.50;;;;;;;16.76;50.00;100221.81;5049409;28;20472;-54
2022/10/08 08:57:10;;;;;;;7.97;1.95;;;;;;;17.46;49.47;100228.66;5067604;28;20048;-52
2022/10/08 08:59:41;;;;;;;4.63;1.63;;;;;;;20.01;44.70;100215.25;5068442;28;20440;-55
2022/10/08 09:02:23;;;;;;;5.07;1.45;;;;;;;20.96;41.70;100224.72;5067063;28;20044;-54
2022/10/08 09:04:59;;;;;;;5.63;1.88;;;;;;;20.10;43.26;100228.69;5067977;28;20044;-52
2022/10/08 09:07:28;;;;;;;7.35;1.60;;;;;;;20.56;41.58;100216.00;5051713;28;20080;-53
2022/10/08 09:09:57;;;;;;;8.07;2.30;;;;;;;19.54;43.36;100221.78;5051121;28;20397;-50
2022/10/08 09:12:26;;;;;;;;;;;;;;;18.27;44.71;100222.34;5068634;28;20052;-53
2022/10/08 09:14:54;;;;;;;7.80;1.90;;;;;;;18.77;44.46;100214.19;5069404;28;19920;-53
2022/10/08 09:17:37;;;;;;;5.95;2.38;;;;;;;20.24;41.11;100182.94;5067732;28;20503;-54
2022/10/08 09:20:04;;;;;;;7.38;1.75;;;;;;;20.88;40.39;100195.31;5068262;28;20040;-52
2022/10/08 09:22:35;;;;;;;5.07;1.70;;;;;;;21.48;39.03;100226.41;5051466;28;20079;-52
2022/10/08 09:25:24;;;;;;;5.43;1.75;;;;;;;21.51;38.70;100195.25;5067696;28;20044;-52
2022/10/08 09:27:54;;;;;;;;;;;;;;;22.42;37.11;100185.06;5069899;28;20123;-55
2022/10/08 09:30:23;;;;;;;6.70;2.63;;;;;;;22.34;36.55;100192.75;5067921;28;19917;-53
2022/10/08 09:32:49;;;;;;;6.43;2.03;;;;;;;22.57;36.55;100188.34;5068662;28;20423;-53
2022/10/08 09:35:15;;;;;;;5.95;1.60;;;;;;;23.19;35.01;100157.00;5067726;28;20425;-53
2022/10/08 09:37:45;;;;;;;7.00;1.77;;;;;;;23.30;34.82;100162.31;5068960;28;20427;-53
2022/10/08 09:40:12;;;;;;;5.32;1.80;;;;;;;24.01;33.97;100187.56;5051121;28;20550;-55
2022/10/08 09:42:38;;;;;;;4.68;1.60;;;;;;;24.51;33.24;100179.88;5050936;28;20040;-55
2022/10/08 09:45:34;;;;;;;5.70;1.50;;;;;;;24.58;32.91;100181.91;5034544;28;20571;-52
2022/10/08 09:48:16;;;;;;;4.72;1.65;;;;;;;25.35;32.16;100174.34;5069041;28;20041;-54
2022/10/08 09:51:10;;;;;;;4.93;1.38;;;;;;;24.70;32.21;100164.06;5067337;28;20516;-51
2022/10/08 09:53:52;;;;;;;5.47;2.00;;;;;;;24.97;32.40;100169.69;5067819;28;20074;-53
2022/10/08 09:56:26;;;;;;;7.47;2.35;;;;;;;24.95;31.71;100169.00;5068826;28;20127;-52
2022/10/08 09:58:56;;;;;;;5.45;2.33;;;;;;;25.93;31.13;100159.38;5067769;28;20065;-55
2022/10/08 10:01:23;;;;;;;4.15;1.95;;;;;;;26.36;30.13;100142.97;5069501;28;20127;-51
2022/10/08 10:03:56;;;;;;;6.88;2.00;;;;;;;26.22;29.25;100146.09;5067832;28;20040;-54
2022/10/08 10:06:36;;;;;;;6.80;2.15;;;;;;;26.20;29.53;100139.16;5067919;28;20064;-51
2022/10/08 10:09:37;;;;;;;4.65;2.00;;;;;;;26.49;29.22;100145.34;5067840;28;20033;-50
2022/10/08 10:12:03;;;;;;;6.13;1.85;;;;;;;26.43;29.41;100149.41;5029579;28;20610;-52
2022/10/08 10:15:08;;;;;;;10.38;2.47;;;;;;;25.82;29.78;100134.66;5046875;28;20037;-56
2022/10/08 10:17:53;;;;;;;5.70;2.30;;;;;;;26.32;29.41;100130.94;4990851;28;20046;-57
2022/10/08 10:20:24;;;;;;;7.38;2.55;;;;;;;26.12;29.36;100126.53;4974368;28;20449;-52
2022/10/08 10:23:14;;;;;;;8.23;2.75;;;;;;;26.66;28.87;100125.94;4975868;28;20054;-54
2022/10/08 10:26:06;;;;;;;7.00;2.08;;;;;;;25.75;29.59;100113.06;5010176;28;20418;-53
2022/10/08 10:28:49;;;;;;;6.80;2.35;;;;;;;26.21;29.38;100104.38;4987308;28;20654;-52
2022/10/08 10:31:26;;;;;;;7.28;2.63;;;;;;;27.68;28.01;100116.94;5010271;28;20053;-49
2022/10/08 10:34:13;;;;;;;6.78;2.40;;;;;;;27.86;27.50;100100.91;5009920;28;20132;-54
2022/10/08 10:36:48;;;;;;;4.95;1.75;;;;;;;27.57;27.37;100101.13;5010025;28;20042;-54
2022/10/08 10:40:05;;;;;;;15.73;2.50;;;;;;;27.21;28.12;100086.00;4977406;28;20045;-52
2022/10/08 10:42:31;;;;;;;9.98;1.88;;;;;;;27.27;28.13;100088.03;4935818;28;20057;-57
2022/10/08 10:45:15;;;;;;;7.22;1.60;;;;;;;26.34;28.55;100094.28;4924159;29;20042;-54
2022/10/08 10:47:41;;;;;;;8.30;2.17;;;;;;;24.50;31.02;100088.63;4951353;28;20093;-54
2022/10/08 10:50:14;;;;;;;4.95;2.17;;;;;;;24.94;30.53;100078.66;4951559;29;20043;-52
2022/10/08 10:53:03;;;;;;;4.25;1.98;;;;;;;25.81;29.51;100085.03;4955164;28;20050;-54
2022/10/08 10:55:39;;;;;;;7.97;1.83;;;;;;;24.39;31.20;100078.09;5009921;28;20042;-55
2022/10/08 10:58:21;;;;;;;5.90;2.45;;;;;;;23.34;32.85;100062.09;4992980;28;20033;-55
2022/10/08 11:01:17;;;;;;;4.45;1.90;;;;;;;24.41;31.58;100069.00;4993134;28;20437;-55
2022/10/08 11:03:56;;;;;;;6.28;2.30;;;;;;;25.06;31.05;100065.13;5009847;28;20046;-55
2022/10/08 11:06:40;;;;;;;7.45;2.03;;;;;;;26.00;29.57;100085.03;4993194;28;20073;-52
2022/10/08 11:09:24;;;;;;;8.27;2.33;;;;;;;25.45;29.94;100063.38;5009617;28;20101;-54
2022/10/08 11:12:01;;;;;;;5.72;2.10;;;;;;;25.59;29.86;100064.84;4976679;28;20557;-56
2022/10/08 11:14:46;;;;;;;7.18;2.03;;;;;;;25.57;29.82;100049.00;5071696;28;20131;-55
2022/10/08 11:17:43;;;;;;;12.45;2.65;;;;;;;25.19;30.31;100047.09;5070469;28;20041;-53
2022/10/08 11:20:09;;;;;;;6.35;2.67;;;;;;;25.31;30.17;100055.81;5053632;28;20071;-55
2022/10/08 11:22:53;;;;;;;6.65;2.00;;;;;;;24.18;31.85;100056.81;5070261;28;20071;-53
2022/10/08 11:25:25;;;;;;;10.02;2.50;;;;;;;23.06;33.26;100044.88;5070133;28;20044;-55
2022/10/08 11:28:09;;;;;;;6.82;2.03;;;;;;;22.04;34.97;100030.81;5069628;28;20541;-56
2022/10/08 11:30:50;;;;;;;9.68;2.40;;;;;;;21.31;36.35;100031.00;5069792;28;20040;-50
2022/10/08 11:33:16;;;;;;;8.82;2.58;;;;;;;21.12;37.08;100023.53;5070924;28;20553;-53
2022/10/08 11:36:12;;;;;;;10.32;2.17;;;;;;;20.86;37.68;100022.75;5070081;28;20048;-54
2022/10/08 11:39:12;;;;;;;8.40;2.53;;;;;;;21.18;37.54;100019.63;5070724;28;20040;-55
2022/10/08 11:41:53;;;;;;;6.82;2.00;;;;;;;20.38;38.46;100020.91;5069519;28;20055;-54
2022/10/08 11:44:21;;;;;;;6.72;1.60;;;;;;;19.42;39.87;100017.63;5069880;28;20549;-54
2022/10/08 11:46:46;;;;;;;7.00;1.95;;;;;;;18.95;40.68;100006.66;5053229;28;20045;-52